sensor_id;sensor_type;location;lat;lon;timestamp;P1;durP1;ratioP1;P2;durP2;ratioP2
60006;SDS011;45863;50.336;3.536;2023-07-31T00:00:25;12.43;;;4.93;;
60006;SDS011;45863;50.336;3.536;2023-07-31T00:02:51;12.35;;;4.80;;
60006;SDS011;45863;50.336;3.536;2023-07-31T00:05:17;10.45;;;4.95;;
60006;SDS011;45863;50.336;3.536;2023-07-31T00:07:42;11.43;;;4.87;;
60006;SDS011;45863;50.336;3.536;2023-07-31T00:10:07;9.55;;;4.57;;
60006;SDS011;45863;50.336;3.536;2023-07-31T00:12:32;10.88;;;4.70;;
60006;SDS011;45863;50.336;3.536;2023-07-31T00:14:58;9.33;;;4.23;;
60006;SDS011;45863;50.336;3.536;2023-07-31T00:17:23;11.10;;;5.45;;
60006;SDS011;45863;50.336;3.536;2023-07-31T00:19:48;9.85;;;4.82;;
60006;SDS011;45863;50.336;3.536;2023-07-31T00:22:15;9.73;;;4.82;;
60006;SDS011;45863;50.336;3.536;2023-07-31T00:24:40;9.98;;;4.60;;
60006;SDS011;45863;50.336;3.536;2023-07-31T00:27:06;10.87;;;4.30;;
60006;SDS011;45863;50.336;3.536;2023-07-31T00:29:31;10.73;;;4.53;;
60006;SDS011;45863;50.336;3.536;2023-07-31T00:31:56;8.53;;;4.00;;
60006;SDS011;45863;50.336;3.536;2023-07-31T00:34:21;12.07;;;4.00;;
60006;SDS011;45863;50.336;3.536;2023-07-31T00:36:47;10.32;;;4.40;;
60006;SDS011;45863;50.336;3.536;2023-07-31T00:39:12;10.70;;;4.20;;
60006;SDS011;45863;50.336;3.536;2023-07-31T00:41:37;12.43;;;4.30;;
60006;SDS011;45863;50.336;3.536;2023-07-31T00:44:02;12.30;;;4.13;;
60006;SDS011;45863;50.336;3.536;2023-07-31T00:46:27;13.15;;;4.60;;
60006;SDS011;45863;50.336;3.536;2023-07-31T00:48:53;10.20;;;4.32;;
60006;SDS011;45863;50.336;3.536;2023-07-31T00:51:18;10.15;;;3.85;;
60006;SDS011;45863;50.336;3.536;2023-07-31T00:53:43;9.70;;;4.35;;
60006;SDS011;45863;50.336;3.536;2023-07-31T00:56:08;10.30;;;3.92;;
60006;SDS011;45863;50.336;3.536;2023-07-31T00:58:34;10.13;;;4.20;;
60006;SDS011;45863;50.336;3.536;2023-07-31T01:01:00;9.38;;;4.32;;
60006;SDS011;45863;50.336;3.536;2023-07-31T01:03:25;9.70;;;4.10;;
60006;SDS011;45863;50.336;3.536;2023-07-31T01:06:07;10.43;;;4.60;;
60006;SDS011;45863;50.336;3.536;2023-07-31T01:08:37;9.43;;;4.00;;
60006;SDS011;45863;50.336;3.536;2023-07-31T01:11:15;9.98;;;4.43;;
60006;SDS011;45863;50.336;3.536;2023-07-31T01:13:42;10.55;;;3.72;;
60006;SDS011;45863;50.336;3.536;2023-07-31T01:16:08;9.20;;;3.72;;
60006;SDS011;45863;50.336;3.536;2023-07-31T01:18:33;7.57;;;3.70;;
60006;SDS011;45863;50.336;3.536;2023-07-31T01:21:03;10.02;;;4.07;;
60006;SDS011;45863;50.336;3.536;2023-07-31T01:26:08;7.85;;;4.10;;
60006;SDS011;45863;50.336;3.536;2023-07-31T01:29:00;8.73;;;3.80;;
60006;SDS011;45863;50.336;3.536;2023-07-31T01:31:24;12.40;;;4.93;;
60006;SDS011;45863;50.336;3.536;2023-07-31T01:33:51;10.73;;;4.00;;
60006;SDS011;45863;50.336;3.536;2023-07-31T01:36:17;11.55;;;4.68;;
60006;SDS011;45863;50.336;3.536;2023-07-31T01:38:43;10.55;;;4.65;;
60006;SDS011;45863;50.336;3.536;2023-07-31T01:41:08;10.40;;;3.90;;
60006;SDS011;45863;50.336;3.536;2023-07-31T01:43:33;10.50;;;3.70;;
60006;SDS011;45863;50.336;3.536;2023-07-31T01:45:58;8.40;;;3.67;;
60006;SDS011;45863;50.336;3.536;2023-07-31T01:48:24;8.82;;;3.70;;
60006;SDS011;45863;50.336;3.536;2023-07-31T01:50:49;8.57;;;3.77;;
60006;SDS011;45863;50.336;3.536;2023-07-31T01:53:14;9.98;;;4.47;;
60006;SDS011;45863;50.336;3.536;2023-07-31T01:55:39;12.55;;;4.07;;
60006;SDS011;45863;50.336;3.536;2023-07-31T01:58:05;9.90;;;3.87;;
60006;SDS011;45863;50.336;3.536;2023-07-31T02:00:30;17.07;;;4.03;;
60006;SDS011;45863;50.336;3.536;2023-07-31T02:02:55;9.40;;;4.30;;
60006;SDS011;45863;50.336;3.536;2023-07-31T02:05:20;12.10;;;4.07;;
60006;SDS011;45863;50.336;3.536;2023-07-31T02:07:45;9.98;;;3.72;;
60006;SDS011;45863;50.336;3.536;2023-07-31T02:10:11;10.15;;;3.90;;
60006;SDS011;45863;50.336;3.536;2023-07-31T02:12:36;14.50;;;3.87;;
60006;SDS011;45863;50.336;3.536;2023-07-31T02:15:01;9.98;;;4.15;;
60006;SDS011;45863;50.336;3.536;2023-07-31T02:17:26;10.35;;;4.38;;
60006;SDS011;45863;50.336;3.536;2023-07-31T02:19:52;9.32;;;3.60;;
60006;SDS011;45863;50.336;3.536;2023-07-31T02:22:17;9.35;;;4.30;;
60006;SDS011;45863;50.336;3.536;2023-07-31T02:24:43;11.23;;;4.55;;
60006;SDS011;45863;50.336;3.536;2023-07-31T02:27:08;9.33;;;4.50;;
60006;SDS011;45863;50.336;3.536;2023-07-31T02:29:33;8.47;;;4.00;;
60006;SDS011;45863;50.336;3.536;2023-07-31T02:31:58;7.85;;;3.63;;
60006;SDS011;45863;50.336;3.536;2023-07-31T02:34:23;9.83;;;4.20;;
60006;SDS011;45863;50.336;3.536;2023-07-31T02:36:49;13.13;;;4.97;;
60006;SDS011;45863;50.336;3.536;2023-07-31T02:39:14;8.85;;;3.70;;
60006;SDS011;45863;50.336;3.536;2023-07-31T02:41:39;8.27;;;4.07;;
60006;SDS011;45863;50.336;3.536;2023-07-31T02:44:04;8.77;;;3.90;;
60006;SDS011;45863;50.336;3.536;2023-07-31T02:46:30;9.63;;;4.10;;
60006;SDS011;45863;50.336;3.536;2023-07-31T02:48:55;12.10;;;4.30;;
60006;SDS011;45863;50.336;3.536;2023-07-31T02:51:20;9.18;;;4.10;;
60006;SDS011;45863;50.336;3.536;2023-07-31T02:53:46;9.43;;;3.83;;
60006;SDS011;45863;50.336;3.536;2023-07-31T02:56:11;10.48;;;3.83;;
60006;SDS011;45863;50.336;3.536;2023-07-31T02:58:37;9.33;;;3.67;;
60006;SDS011;45863;50.336;3.536;2023-07-31T03:01:02;10.10;;;4.37;;
60006;SDS011;45863;50.336;3.536;2023-07-31T03:03:27;12.47;;;4.17;;
60006;SDS011;45863;50.336;3.536;2023-07-31T03:05:52;7.70;;;3.67;;
60006;SDS011;45863;50.336;3.536;2023-07-31T03:08:18;9.63;;;4.15;;
60006;SDS011;45863;50.336;3.536;2023-07-31T03:10:43;10.88;;;3.92;;
60006;SDS011;45863;50.336;3.536;2023-07-31T03:13:08;9.32;;;4.10;;
60006;SDS011;45863;50.336;3.536;2023-07-31T03:15:33;12.38;;;4.38;;
60006;SDS011;45863;50.336;3.536;2023-07-31T03:17:59;10.43;;;3.63;;
60006;SDS011;45863;50.336;3.536;2023-07-31T03:20:24;11.70;;;3.83;;
60006;SDS011;45863;50.336;3.536;2023-07-31T03:22:49;10.73;;;3.97;;
60006;SDS011;45863;50.336;3.536;2023-07-31T03:25:14;13.00;;;4.22;;
60006;SDS011;45863;50.336;3.536;2023-07-31T03:27:40;10.25;;;4.32;;
60006;SDS011;45863;50.336;3.536;2023-07-31T03:30:05;9.83;;;4.03;;
60006;SDS011;45863;50.336;3.536;2023-07-31T03:32:30;11.00;;;3.88;;
60006;SDS011;45863;50.336;3.536;2023-07-31T03:34:56;12.83;;;4.40;;
60006;SDS011;45863;50.336;3.536;2023-07-31T03:37:22;9.57;;;3.72;;
60006;SDS011;45863;50.336;3.536;2023-07-31T03:39:47;8.35;;;3.63;;
60006;SDS011;45863;50.336;3.536;2023-07-31T03:42:12;10.05;;;3.85;;
60006;SDS011;45863;50.336;3.536;2023-07-31T03:44:37;14.07;;;4.13;;
60006;SDS011;45863;50.336;3.536;2023-07-31T03:47:03;11.17;;;3.57;;
60006;SDS011;45863;50.336;3.536;2023-07-31T03:49:28;9.77;;;4.00;;
60006;SDS011;45863;50.336;3.536;2023-07-31T03:51:53;10.17;;;4.63;;
60006;SDS011;45863;50.336;3.536;2023-07-31T03:54:19;11.35;;;4.53;;
60006;SDS011;45863;50.336;3.536;2023-07-31T03:56:44;10.37;;;4.00;;
60006;SDS011;45863;50.336;3.536;2023-07-31T03:59:09;10.40;;;3.77;;
60006;SDS011;45863;50.336;3.536;2023-07-31T04:01:34;13.63;;;4.20;;
60006;SDS011;45863;50.336;3.536;2023-07-31T04:03:59;8.35;;;3.90;;
60006;SDS011;45863;50.336;3.536;2023-07-31T04:06:25;11.30;;;4.47;;
60006;SDS011;45863;50.336;3.536;2023-07-31T04:08:50;11.83;;;4.07;;
60006;SDS011;45863;50.336;3.536;2023-07-31T04:11:15;16.60;;;4.30;;
60006;SDS011;45863;50.336;3.536;2023-07-31T04:13:40;15.63;;;4.25;;
60006;SDS011;45863;50.336;3.536;2023-07-31T04:16:06;11.57;;;4.03;;
60006;SDS011;45863;50.336;3.536;2023-07-31T04:18:31;9.33;;;3.60;;
60006;SDS011;45863;50.336;3.536;2023-07-31T04:20:57;12.60;;;3.70;;
60006;SDS011;45863;50.336;3.536;2023-07-31T04:23:23;11.50;;;4.50;;
60006;SDS011;45863;50.336;3.536;2023-07-31T04:25:48;11.32;;;4.28;;
60006;SDS011;45863;50.336;3.536;2023-07-31T04:28:14;11.90;;;4.68;;
60006;SDS011;45863;50.336;3.536;2023-07-31T04:30:39;14.53;;;4.57;;
60006;SDS011;45863;50.336;3.536;2023-07-31T04:33:04;10.07;;;4.20;;
60006;SDS011;45863;50.336;3.536;2023-07-31T04:35:29;11.13;;;4.03;;
60006;SDS011;45863;50.336;3.536;2023-07-31T04:37:54;12.07;;;3.67;;
60006;SDS011;45863;50.336;3.536;2023-07-31T04:40:20;10.87;;;4.43;;
60006;SDS011;45863;50.336;3.536;2023-07-31T04:42:45;10.07;;;4.35;;
60006;SDS011;45863;50.336;3.536;2023-07-31T04:45:11;10.07;;;4.25;;
60006;SDS011;45863;50.336;3.536;2023-07-31T04:47:36;10.20;;;3.95;;
60006;SDS011;45863;50.336;3.536;2023-07-31T04:50:01;8.82;;;4.20;;
60006;SDS011;45863;50.336;3.536;2023-07-31T04:52:27;10.30;;;4.38;;
60006;SDS011;45863;50.336;3.536;2023-07-31T04:54:52;11.10;;;4.17;;
60006;SDS011;45863;50.336;3.536;2023-07-31T04:57:17;9.15;;;3.58;;
60006;SDS011;45863;50.336;3.536;2023-07-31T04:59:42;12.50;;;4.18;;
60006;SDS011;45863;50.336;3.536;2023-07-31T05:02:08;9.93;;;4.45;;
60006;SDS011;45863;50.336;3.536;2023-07-31T05:04:33;10.30;;;4.43;;
60006;SDS011;45863;50.336;3.536;2023-07-31T05:06:58;12.47;;;4.30;;
60006;SDS011;45863;50.336;3.536;2023-07-31T05:09:23;13.73;;;4.88;;
60006;SDS011;45863;50.336;3.536;2023-07-31T05:11:49;13.83;;;4.80;;
60006;SDS011;45863;50.336;3.536;2023-07-31T05:14:14;13.55;;;4.78;;
60006;SDS011;45863;50.336;3.536;2023-07-31T05:16:40;13.65;;;4.78;;
60006;SDS011;45863;50.336;3.536;2023-07-31T05:19:05;15.98;;;5.10;;
60006;SDS011;45863;50.336;3.536;2023-07-31T05:21:31;12.67;;;5.73;;
60006;SDS011;45863;50.336;3.536;2023-07-31T05:23:56;14.00;;;5.88;;
60006;SDS011;45863;50.336;3.536;2023-07-31T05:26:21;14.57;;;5.25;;
60006;SDS011;45863;50.336;3.536;2023-07-31T05:28:46;10.67;;;4.90;;
60006;SDS011;45863;50.336;3.536;2023-07-31T05:31:12;15.68;;;5.53;;
60006;SDS011;45863;50.336;3.536;2023-07-31T05:33:37;12.85;;;5.20;;
60006;SDS011;45863;50.336;3.536;2023-07-31T05:36:02;11.32;;;4.93;;
60006;SDS011;45863;50.336;3.536;2023-07-31T05:38:27;13.07;;;5.35;;
60006;SDS011;45863;50.336;3.536;2023-07-31T05:40:53;11.13;;;4.70;;
60006;SDS011;45863;50.336;3.536;2023-07-31T05:43:18;10.38;;;4.80;;
60006;SDS011;45863;50.336;3.536;2023-07-31T05:45:43;11.88;;;4.93;;
60006;SDS011;45863;50.336;3.536;2023-07-31T05:48:08;13.57;;;4.53;;
60006;SDS011;45863;50.336;3.536;2023-07-31T05:50:33;12.25;;;4.28;;
60006;SDS011;45863;50.336;3.536;2023-07-31T05:52:59;10.75;;;4.38;;
60006;SDS011;45863;50.336;3.536;2023-07-31T05:55:24;13.45;;;4.50;;
60006;SDS011;45863;50.336;3.536;2023-07-31T05:57:52;11.23;;;4.80;;
60006;SDS011;45863;50.336;3.536;2023-07-31T06:00:17;12.10;;;4.28;;
60006;SDS011;45863;50.336;3.536;2023-07-31T06:02:42;11.00;;;4.27;;
60006;SDS011;45863;50.336;3.536;2023-07-31T06:05:07;10.20;;;4.50;;
60006;SDS011;45863;50.336;3.536;2023-07-31T06:07:33;13.48;;;4.38;;
60006;SDS011;45863;50.336;3.536;2023-07-31T06:09:58;9.95;;;4.13;;
60006;SDS011;45863;50.336;3.536;2023-07-31T06:12:29;11.30;;;4.05;;
60006;SDS011;45863;50.336;3.536;2023-07-31T06:14:54;11.73;;;3.92;;
60006;SDS011;45863;50.336;3.536;2023-07-31T06:17:20;12.52;;;3.75;;
60006;SDS011;45863;50.336;3.536;2023-07-31T06:19:45;12.50;;;4.10;;
60006;SDS011;45863;50.336;3.536;2023-07-31T06:22:10;9.20;;;3.43;;
60006;SDS011;45863;50.336;3.536;2023-07-31T06:24:35;14.80;;;4.00;;
60006;SDS011;45863;50.336;3.536;2023-07-31T06:27:00;12.70;;;4.80;;
60006;SDS011;45863;50.336;3.536;2023-07-31T06:29:27;10.82;;;4.20;;
60006;SDS011;45863;50.336;3.536;2023-07-31T06:31:53;9.50;;;4.10;;
60006;SDS011;45863;50.336;3.536;2023-07-31T06:34:18;11.00;;;4.10;;
60006;SDS011;45863;50.336;3.536;2023-07-31T06:36:43;12.23;;;4.00;;
60006;SDS011;45863;50.336;3.536;2023-07-31T06:39:08;10.40;;;4.10;;
60006;SDS011;45863;50.336;3.536;2023-07-31T06:41:34;9.43;;;3.92;;
60006;SDS011;45863;50.336;3.536;2023-07-31T06:43:59;9.63;;;3.58;;
60006;SDS011;45863;50.336;3.536;2023-07-31T06:46:24;11.38;;;4.57;;
60006;SDS011;45863;50.336;3.536;2023-07-31T06:48:49;7.63;;;3.67;;
60006;SDS011;45863;50.336;3.536;2023-07-31T06:51:15;10.67;;;5.40;;
60006;SDS011;45863;50.336;3.536;2023-07-31T06:53:41;8.75;;;3.42;;
60006;SDS011;45863;50.336;3.536;2023-07-31T06:56:06;10.05;;;3.55;;
60006;SDS011;45863;50.336;3.536;2023-07-31T06:58:31;13.52;;;4.43;;
60006;SDS011;45863;50.336;3.536;2023-07-31T07:00:57;10.00;;;3.83;;
60006;SDS011;45863;50.336;3.536;2023-07-31T07:03:22;9.70;;;3.77;;
60006;SDS011;45863;50.336;3.536;2023-07-31T07:05:47;12.53;;;3.97;;
60006;SDS011;45863;50.336;3.536;2023-07-31T07:08:12;8.98;;;4.22;;
60006;SDS011;45863;50.336;3.536;2023-07-31T07:10:38;10.70;;;4.20;;
60006;SDS011;45863;50.336;3.536;2023-07-31T07:13:03;8.38;;;3.55;;
60006;SDS011;45863;50.336;3.536;2023-07-31T07:15:28;11.85;;;4.07;;
60006;SDS011;45863;50.336;3.536;2023-07-31T07:17:54;10.35;;;4.55;;
60006;SDS011;45863;50.336;3.536;2023-07-31T07:20:19;10.10;;;4.43;;
60006;SDS011;45863;50.336;3.536;2023-07-31T07:22:45;13.93;;;4.38;;
60006;SDS011;45863;50.336;3.536;2023-07-31T07:25:10;10.25;;;4.28;;
60006;SDS011;45863;50.336;3.536;2023-07-31T07:27:35;10.70;;;4.78;;
60006;SDS011;45863;50.336;3.536;2023-07-31T07:30:01;13.73;;;5.10;;
60006;SDS011;45863;50.336;3.536;2023-07-31T07:32:26;10.77;;;4.45;;
60006;SDS011;45863;50.336;3.536;2023-07-31T07:34:51;12.88;;;4.60;;
60006;SDS011;45863;50.336;3.536;2023-07-31T07:37:17;10.90;;;4.88;;
60006;SDS011;45863;50.336;3.536;2023-07-31T07:39:42;12.23;;;4.75;;
60006;SDS011;45863;50.336;3.536;2023-07-31T07:42:07;14.87;;;4.90;;
60006;SDS011;45863;50.336;3.536;2023-07-31T07:44:32;13.43;;;4.63;;
60006;SDS011;45863;50.336;3.536;2023-07-31T07:46:58;11.80;;;4.40;;
60006;SDS011;45863;50.336;3.536;2023-07-31T07:49:23;11.23;;;4.37;;
60006;SDS011;45863;50.336;3.536;2023-07-31T07:51:48;11.30;;;4.35;;
60006;SDS011;45863;50.336;3.536;2023-07-31T07:54:14;15.45;;;4.55;;
60006;SDS011;45863;50.336;3.536;2023-07-31T07:56:39;10.10;;;4.50;;
60006;SDS011;45863;50.336;3.536;2023-07-31T07:59:05;11.52;;;4.15;;
60006;SDS011;45863;50.336;3.536;2023-07-31T08:01:30;12.35;;;4.60;;
60006;SDS011;45863;50.336;3.536;2023-07-31T08:03:55;12.05;;;4.45;;
60006;SDS011;45863;50.336;3.536;2023-07-31T08:06:20;8.20;;;4.00;;
60006;SDS011;45863;50.336;3.536;2023-07-31T08:08:47;9.25;;;3.90;;
60006;SDS011;45863;50.336;3.536;2023-07-31T08:11:12;9.40;;;4.53;;
60006;SDS011;45863;50.336;3.536;2023-07-31T08:13:38;10.95;;;4.68;;
60006;SDS011;45863;50.336;3.536;2023-07-31T08:16:03;13.05;;;4.85;;
60006;SDS011;45863;50.336;3.536;2023-07-31T08:18:30;12.95;;;4.28;;
60006;SDS011;45863;50.336;3.536;2023-07-31T08:20:55;11.65;;;4.15;;
60006;SDS011;45863;50.336;3.536;2023-07-31T08:23:20;12.13;;;4.57;;
60006;SDS011;45863;50.336;3.536;2023-07-31T08:25:45;13.45;;;4.38;;
60006;SDS011;45863;50.336;3.536;2023-07-31T08:28:11;12.70;;;4.78;;
60006;SDS011;45863;50.336;3.536;2023-07-31T08:30:36;14.97;;;4.17;;
60006;SDS011;45863;50.336;3.536;2023-07-31T08:33:02;11.20;;;4.60;;
60006;SDS011;45863;50.336;3.536;2023-07-31T08:35:27;10.05;;;4.35;;
60006;SDS011;45863;50.336;3.536;2023-07-31T08:37:53;14.23;;;5.47;;
60006;SDS011;45863;50.336;3.536;2023-07-31T08:40:18;11.82;;;4.85;;
60006;SDS011;45863;50.336;3.536;2023-07-31T08:42:47;12.35;;;5.03;;
60006;SDS011;45863;50.336;3.536;2023-07-31T08:45:16;11.40;;;4.80;;
60006;SDS011;45863;50.336;3.536;2023-07-31T08:47:44;10.43;;;4.93;;
60006;SDS011;45863;50.336;3.536;2023-07-31T08:50:09;12.15;;;5.05;;
60006;SDS011;45863;50.336;3.536;2023-07-31T08:52:35;11.85;;;4.28;;
60006;SDS011;45863;50.336;3.536;2023-07-31T08:55:00;11.73;;;5.13;;
60006;SDS011;45863;50.336;3.536;2023-07-31T08:57:25;15.88;;;5.22;;
60006;SDS011;45863;50.336;3.536;2023-07-31T08:59:51;14.20;;;5.07;;
60006;SDS011;45863;50.336;3.536;2023-07-31T09:02:16;11.98;;;5.03;;
60006;SDS011;45863;50.336;3.536;2023-07-31T09:04:42;21.92;;;6.25;;
60006;SDS011;45863;50.336;3.536;2023-07-31T09:07:07;13.40;;;5.73;;
60006;SDS011;45863;50.336;3.536;2023-07-31T09:09:34;15.18;;;5.75;;
60006;SDS011;45863;50.336;3.536;2023-07-31T09:11:59;15.48;;;5.43;;
60006;SDS011;45863;50.336;3.536;2023-07-31T09:14:25;13.27;;;4.88;;
60006;SDS011;45863;50.336;3.536;2023-07-31T09:16:54;11.68;;;4.55;;
60006;SDS011;45863;50.336;3.536;2023-07-31T09:21:51;15.52;;;5.57;;
60006;SDS011;45863;50.336;3.536;2023-07-31T09:24:26;13.43;;;5.07;;
60006;SDS011;45863;50.336;3.536;2023-07-31T09:26:53;15.48;;;5.55;;
60006;SDS011;45863;50.336;3.536;2023-07-31T09:29:19;11.77;;;5.55;;
60006;SDS011;45863;50.336;3.536;2023-07-31T09:31:44;12.50;;;5.13;;
60006;SDS011;45863;50.336;3.536;2023-07-31T09:34:10;14.82;;;5.25;;
60006;SDS011;45863;50.336;3.536;2023-07-31T09:39:07;14.35;;;5.68;;
60006;SDS011;45863;50.336;3.536;2023-07-31T09:41:36;13.18;;;5.40;;
60006;SDS011;45863;50.336;3.536;2023-07-31T09:44:01;12.13;;;5.25;;
60006;SDS011;45863;50.336;3.536;2023-07-31T09:46:26;12.23;;;5.10;;
60006;SDS011;45863;50.336;3.536;2023-07-31T09:48:52;10.63;;;4.75;;
60006;SDS011;45863;50.336;3.536;2023-07-31T09:51:17;11.77;;;5.03;;
60006;SDS011;45863;50.336;3.536;2023-07-31T09:53:50;10.65;;;5.20;;
60006;SDS011;45863;50.336;3.536;2023-07-31T09:56:16;12.23;;;4.50;;
60006;SDS011;45863;50.336;3.536;2023-07-31T09:58:42;11.57;;;4.78;;
60006;SDS011;45863;50.336;3.536;2023-07-31T10:01:07;10.65;;;5.28;;
60006;SDS011;45863;50.336;3.536;2023-07-31T10:03:32;12.82;;;5.55;;
60006;SDS011;45863;50.336;3.536;2023-07-31T10:05:58;14.07;;;5.18;;
60006;SDS011;45863;50.336;3.536;2023-07-31T10:08:27;10.70;;;4.72;;
60006;SDS011;45863;50.336;3.536;2023-07-31T10:10:54;12.15;;;4.88;;
60006;SDS011;45863;50.336;3.536;2023-07-31T10:13:23;15.10;;;5.22;;
60006;SDS011;45863;50.336;3.536;2023-07-31T10:15:48;12.52;;;5.10;;
60006;SDS011;45863;50.336;3.536;2023-07-31T10:18:14;14.98;;;5.28;;
60006;SDS011;45863;50.336;3.536;2023-07-31T10:20:40;9.57;;;4.50;;
60006;SDS011;45863;50.336;3.536;2023-07-31T10:23:05;13.68;;;4.80;;
60006;SDS011;45863;50.336;3.536;2023-07-31T10:25:30;13.55;;;4.90;;
60006;SDS011;45863;50.336;3.536;2023-07-31T10:27:57;10.73;;;4.43;;
60006;SDS011;45863;50.336;3.536;2023-07-31T10:30:24;15.02;;;5.13;;
60006;SDS011;45863;50.336;3.536;2023-07-31T10:32:51;12.25;;;5.32;;
60006;SDS011;45863;50.336;3.536;2023-07-31T10:35:16;12.57;;;5.10;;
60006;SDS011;45863;50.336;3.536;2023-07-31T10:37:42;10.43;;;4.65;;
60006;SDS011;45863;50.336;3.536;2023-07-31T10:40:18;8.85;;;4.10;;
60006;SDS011;45863;50.336;3.536;2023-07-31T10:45:12;14.27;;;5.63;;
60006;SDS011;45863;50.336;3.536;2023-07-31T10:47:38;9.35;;;4.20;;
60006;SDS011;45863;50.336;3.536;2023-07-31T10:50:16;11.43;;;4.65;;
60006;SDS011;45863;50.336;3.536;2023-07-31T10:52:44;12.38;;;4.20;;
60006;SDS011;45863;50.336;3.536;2023-07-31T10:57:43;9.60;;;4.97;;
60006;SDS011;45863;50.336;3.536;2023-07-31T11:02:43;9.82;;;4.30;;
60006;SDS011;45863;50.336;3.536;2023-07-31T11:05:20;15.68;;;5.28;;
60006;SDS011;45863;50.336;3.536;2023-07-31T11:07:49;13.60;;;4.90;;
60006;SDS011;45863;50.336;3.536;2023-07-31T11:10:18;11.55;;;4.80;;
60006;SDS011;45863;50.336;3.536;2023-07-31T11:12:44;13.57;;;5.00;;
60006;SDS011;45863;50.336;3.536;2023-07-31T11:15:09;13.07;;;5.47;;
60006;SDS011;45863;50.336;3.536;2023-07-31T11:17:38;13.02;;;4.88;;
60006;SDS011;45863;50.336;3.536;2023-07-31T11:20:03;12.80;;;4.85;;
60006;SDS011;45863;50.336;3.536;2023-07-31T11:22:28;12.88;;;4.75;;
60006;SDS011;45863;50.336;3.536;2023-07-31T11:24:55;11.40;;;4.45;;
60006;SDS011;45863;50.336;3.536;2023-07-31T11:27:21;13.43;;;5.07;;
60006;SDS011;45863;50.336;3.536;2023-07-31T11:29:46;11.30;;;4.30;;
60006;SDS011;45863;50.336;3.536;2023-07-31T11:32:15;13.83;;;4.63;;
60006;SDS011;45863;50.336;3.536;2023-07-31T11:34:52;12.88;;;5.07;;
60006;SDS011;45863;50.336;3.536;2023-07-31T11:37:17;16.13;;;4.95;;
60006;SDS011;45863;50.336;3.536;2023-07-31T11:39:42;14.80;;;5.03;;
60006;SDS011;45863;50.336;3.536;2023-07-31T11:42:07;11.50;;;4.88;;
60006;SDS011;45863;50.336;3.536;2023-07-31T11:44:40;14.60;;;5.10;;
60006;SDS011;45863;50.336;3.536;2023-07-31T11:47:06;14.70;;;4.55;;
60006;SDS011;45863;50.336;3.536;2023-07-31T11:49:31;11.45;;;4.28;;
60006;SDS011;45863;50.336;3.536;2023-07-31T11:51:57;11.88;;;4.70;;
60006;SDS011;45863;50.336;3.536;2023-07-31T11:54:22;15.27;;;4.10;;
60006;SDS011;45863;50.336;3.536;2023-07-31T11:56:47;13.63;;;5.00;;
60006;SDS011;45863;50.336;3.536;2023-07-31T11:59:14;12.25;;;5.45;;
60006;SDS011;45863;50.336;3.536;2023-07-31T12:01:39;16.10;;;6.72;;
60006;SDS011;45863;50.336;3.536;2023-07-31T12:04:05;13.43;;;6.95;;
60006;SDS011;45863;50.336;3.536;2023-07-31T12:06:36;14.40;;;6.60;;
60006;SDS011;45863;50.336;3.536;2023-07-31T12:09:04;14.63;;;6.88;;
60006;SDS011;45863;50.336;3.536;2023-07-31T12:11:30;15.45;;;5.93;;
60006;SDS011;45863;50.336;3.536;2023-07-31T12:13:55;14.95;;;6.90;;
60006;SDS011;45863;50.336;3.536;2023-07-31T12:16:20;20.60;;;7.47;;
60006;SDS011;45863;50.336;3.536;2023-07-31T12:18:50;19.50;;;7.50;;
60006;SDS011;45863;50.336;3.536;2023-07-31T12:21:16;20.40;;;7.82;;
60006;SDS011;45863;50.336;3.536;2023-07-31T12:23:41;19.63;;;7.65;;
60006;SDS011;45863;50.336;3.536;2023-07-31T12:26:08;19.17;;;7.05;;
60006;SDS011;45863;50.336;3.536;2023-07-31T12:28:35;13.98;;;6.82;;
60006;SDS011;45863;50.336;3.536;2023-07-31T12:31:00;13.45;;;6.22;;
60006;SDS011;45863;50.336;3.536;2023-07-31T12:33:30;9.93;;;5.30;;
60006;SDS011;45863;50.336;3.536;2023-07-31T12:35:55;16.75;;;5.60;;
60006;SDS011;45863;50.336;3.536;2023-07-31T12:38:21;13.32;;;6.00;;
60006;SDS011;45863;50.336;3.536;2023-07-31T12:40:47;14.95;;;6.57;;
60006;SDS011;45863;50.336;3.536;2023-07-31T12:43:13;12.18;;;5.15;;
60006;SDS011;45863;50.336;3.536;2023-07-31T12:45:38;10.15;;;4.53;;
60006;SDS011;45863;50.336;3.536;2023-07-31T12:48:03;13.80;;;4.63;;
60006;SDS011;45863;50.336;3.536;2023-07-31T12:50:29;10.43;;;4.85;;
60006;SDS011;45863;50.336;3.536;2023-07-31T12:52:54;12.13;;;5.00;;
60006;SDS011;45863;50.336;3.536;2023-07-31T12:55:20;13.55;;;5.43;;
60006;SDS011;45863;50.336;3.536;2023-07-31T12:57:46;11.00;;;4.53;;
60006;SDS011;45863;50.336;3.536;2023-07-31T13:00:11;9.82;;;3.90;;
60006;SDS011;45863;50.336;3.536;2023-07-31T13:02:37;10.35;;;4.70;;
60006;SDS011;45863;50.336;3.536;2023-07-31T13:05:03;10.95;;;4.25;;
60006;SDS011;45863;50.336;3.536;2023-07-31T13:07:28;8.32;;;4.00;;
60006;SDS011;45863;50.336;3.536;2023-07-31T13:09:53;11.38;;;4.80;;
60006;SDS011;45863;50.336;3.536;2023-07-31T13:12:19;8.88;;;4.38;;
60006;SDS011;45863;50.336;3.536;2023-07-31T13:14:44;8.20;;;3.80;;
60006;SDS011;45863;50.336;3.536;2023-07-31T13:17:09;7.45;;;3.65;;
60006;SDS011;45863;50.336;3.536;2023-07-31T13:19:34;8.47;;;4.40;;
60006;SDS011;45863;50.336;3.536;2023-07-31T13:21:59;11.77;;;4.40;;
60006;SDS011;45863;50.336;3.536;2023-07-31T13:24:25;9.25;;;4.50;;
60006;SDS011;45863;50.336;3.536;2023-07-31T13:26:50;7.57;;;3.60;;
60006;SDS011;45863;50.336;3.536;2023-07-31T13:29:15;7.40;;;3.63;;
60006;SDS011;45863;50.336;3.536;2023-07-31T13:31:40;7.63;;;3.73;;
60006;SDS011;45863;50.336;3.536;2023-07-31T13:34:06;10.43;;;4.37;;
60006;SDS011;45863;50.336;3.536;2023-07-31T13:36:31;8.07;;;3.70;;
60006;SDS011;45863;50.336;3.536;2023-07-31T13:38:56;8.63;;;3.47;;
60006;SDS011;45863;50.336;3.536;2023-07-31T13:41:21;9.57;;;4.03;;
60006;SDS011;45863;50.336;3.536;2023-07-31T13:43:46;8.40;;;4.00;;
60006;SDS011;45863;50.336;3.536;2023-07-31T13:46:12;8.35;;;3.47;;
60006;SDS011;45863;50.336;3.536;2023-07-31T13:48:37;8.93;;;3.60;;
60006;SDS011;45863;50.336;3.536;2023-07-31T13:51:02;8.77;;;3.80;;
60006;SDS011;45863;50.336;3.536;2023-07-31T13:53:27;8.73;;;3.63;;
60006;SDS011;45863;50.336;3.536;2023-07-31T13:55:53;10.90;;;4.40;;
60006;SDS011;45863;50.336;3.536;2023-07-31T13:58:18;8.23;;;4.00;;
60006;SDS011;45863;50.336;3.536;2023-07-31T14:00:43;8.10;;;4.13;;
60006;SDS011;45863;50.336;3.536;2023-07-31T14:03:08;12.30;;;4.22;;
60006;SDS011;45863;50.336;3.536;2023-07-31T14:05:34;7.20;;;4.05;;
60006;SDS011;45863;50.336;3.536;2023-07-31T14:08:00;6.97;;;3.53;;
60006;SDS011;45863;50.336;3.536;2023-07-31T14:10:25;6.27;;;3.30;;
60006;SDS011;45863;50.336;3.536;2023-07-31T14:12:50;8.15;;;3.38;;
60006;SDS011;45863;50.336;3.536;2023-07-31T14:15:15;7.40;;;3.47;;
60006;SDS011;45863;50.336;3.536;2023-07-31T14:17:40;7.00;;;3.55;;
60006;SDS011;45863;50.336;3.536;2023-07-31T14:20:06;7.57;;;3.67;;
60006;SDS011;45863;50.336;3.536;2023-07-31T14:22:31;6.80;;;3.70;;
60006;SDS011;45863;50.336;3.536;2023-07-31T14:24:58;7.97;;;3.65;;
60006;SDS011;45863;50.336;3.536;2023-07-31T14:27:23;8.52;;;3.25;;
60006;SDS011;45863;50.336;3.536;2023-07-31T14:29:49;6.85;;;3.38;;
60006;SDS011;45863;50.336;3.536;2023-07-31T14:32:14;7.30;;;3.60;;
60006;SDS011;45863;50.336;3.536;2023-07-31T14:34:39;6.85;;;2.95;;
60006;SDS011;45863;50.336;3.536;2023-07-31T14:37:04;7.72;;;2.80;;
60006;SDS011;45863;50.336;3.536;2023-07-31T14:39:30;6.30;;;3.03;;
60006;SDS011;45863;50.336;3.536;2023-07-31T14:41:55;6.07;;;3.10;;
60006;SDS011;45863;50.336;3.536;2023-07-31T14:44:20;6.33;;;3.07;;